Time;durP1;ratioP1;P1;durP2;ratioP2;P2;SDS_P1;SDS_P2;PMS_P1;PMS_P2;Temp;Humidity;BMP_temperature;BMP_pressure;BME280_temperature;BME280_humidity;BME280_pressure;Samples;Min_cycle;Max_cycle;Signal;HPM_P1;HPM_P2
2024/02/13 00:02:14;;;;;;;11.57;6.63;;;;;;;;;;5115884;28;20019;-63
2024/02/13 00:04:40;;;;;;;10.02;6.30;;;;;;;;;;5115123;28;20459;-63
2024/02/13 00:07:06;;;;;;;11.73;7.40;;;;;;;;;;5116097;28;20069;-63
2024/02/13 00:09:31;;;;;;;11.35;7.43;;;;;;;;;;5115637;28;20063;-64
2024/02/13 00:12:01;;;;;;;9.57;6.78;;;;;;;;;;5115620;28;20101;-64
2024/02/13 00:14:26;;;;;;;9.50;6.30;;;;;;;;;;5115337;28;20028;-64
2024/02/13 00:16:53;;;;;;;8.48;6.22;;;;;;;;;;5115582;28;20019;-64
2024/02/13 00:19:18;;;;;;;9.23;5.93;;;;;;;;;;5115840;28;20105;-64
2024/02/13 00:21:43;;;;;;;9.60;6.07;;;;;;;;;;5115409;28;20055;-64
2024/02/13 00:24:10;;;;;;;9.60;5.43;;;;;;;;;;5115683;28;20032;-64
2024/02/13 00:26:35;;;;;;;8.45;5.65;;;;;;;;;;5115473;28;20477;-63
2024/02/13 00:29:02;;;;;;;11.57;6.10;;;;;;;;;;5115250;28;20114;-63
2024/02/13 00:31:28;;;;;;;9.35;5.63;;;;;;;;;;5115287;28;20024;-64
2024/02/13 00:33:55;;;;;;;10.30;6.28;;;;;;;;;;5097207;28;20541;-63
2024/02/13 00:36:21;;;;;;;8.68;6.05;;;;;;;;;;5115090;28;20020;-57
2024/02/13 00:38:47;;;;;;;9.27;5.60;;;;;;;;;;5115509;28;20031;-62
2024/02/13 00:41:12;;;;;;;9.70;5.85;;;;;;;;;;5115278;28;20012;-62
2024/02/13 00:43:39;;;;;;;7.93;5.15;;;;;;;;;;5114927;28;20027;-62
2024/02/13 00:46:06;;;;;;;6.13;5.28;;;;;;;;;;5097109;28;20020;-62
2024/02/13 00:48:42;;;;;;;8.45;5.63;;;;;;;;;;5092648;28;20047;-63
2024/02/13 00:51:07;;;;;;;7.20;4.65;;;;;;;;;;5094494;28;20454;-63
2024/02/13 00:53:37;;;;;;;8.93;5.28;;;;;;;;;;5093492;28;20069;-62
2024/02/13 00:56:06;;;;;;;6.18;5.07;;;;;;;;;;5095039;28;20115;-57
2024/02/13 00:58:34;;;;;;;7.47;5.03;;;;;;;;;;5094577;28;20024;-57
2024/02/13 01:01:00;;;;;;;5.85;4.50;;;;;;;;;;5094648;28;20035;-63
2024/02/13 01:03:25;;;;;;;5.47;4.10;;;;;;;;;;5094083;28;20027;-57
2024/02/13 01:05:51;;;;;;;5.38;4.30;;;;;;;;;;5094239;28;20036;-57
2024/02/13 01:08:23;;;;;;;7.30;4.57;;;;;;;;;;5094238;28;20056;-57
2024/02/13 01:10:48;;;;;;;6.00;4.93;;;;;;;;;;5092623;28;20027;-62
2024/02/13 01:13:15;;;;;;;6.35;4.28;;;;;;;;;;5094370;28;20038;-63
2024/02/13 01:15:41;;;;;;;8.43;5.10;;;;;;;;;;5094328;28;20059;-63
2024/02/13 01:18:06;;;;;;;7.82;5.05;;;;;;;;;;5093917;28;20427;-63
2024/02/13 01:20:31;;;;;;;5.63;4.57;;;;;;;;;;5093937;28;20082;-63
2024/02/13 01:22:57;;;;;;;7.45;5.10;;;;;;;;;;5094583;28;20107;-62
2024/02/13 01:25:23;;;;;;;7.30;4.95;;;;;;;;;;5093890;28;20118;-63
2024/02/13 01:27:48;;;;;;;6.55;4.70;;;;;;;;;;5094514;28;20020;-62
2024/02/13 01:30:16;;;;;;;7.93;5.28;;;;;;;;;;5094192;28;20039;-57
2024/02/13 01:32:42;;;;;;;6.53;4.93;;;;;;;;;;5093794;28;20020;-57
2024/02/13 01:35:08;;;;;;;7.32;5.15;;;;;;;;;;5094270;28;20031;-62
2024/02/13 01:37:34;;;;;;;6.50;5.07;;;;;;;;;;5094141;28;20028;-64
2024/02/13 01:39:59;;;;;;;8.15;5.10;;;;;;;;;;5094044;28;20028;-63
2024/02/13 01:42:25;;;;;;;8.20;5.30;;;;;;;;;;5093966;28;20474;-62
2024/02/13 01:44:53;;;;;;;6.15;5.47;;;;;;;;;;5094037;28;20478;-62
2024/02/13 01:47:20;;;;;;;8.25;5.43;;;;;;;;;;5092800;28;20032;-62
2024/02/13 01:49:46;;;;;;;7.68;5.63;;;;;;;;;;5092211;28;20545;-57
2024/02/13 01:52:12;;;;;;;6.47;5.43;;;;;;;;;;5093648;28;20117;-62
2024/02/13 01:54:38;;;;;;;6.40;5.25;;;;;;;;;;5093919;28;20390;-63
2024/02/13 01:57:04;;;;;;;6.93;5.00;;;;;;;;;;5093777;28;20557;-57
2024/02/13 01:59:30;;;;;;;7.18;5.13;;;;;;;;;;5093544;28;20036;-55
2024/02/13 02:01:56;;;;;;;8.10;5.30;;;;;;;;;;5093668;28;20020;-55
2024/02/13 02:04:22;;;;;;;7.40;5.40;;;;;;;;;;5093837;28;20369;-55
2024/02/13 02:06:49;;;;;;;8.02;5.30;;;;;;;;;;5093704;28;20377;-56
2024/02/13 02:09:15;;;;;;;8.63;5.38;;;;;;;;;;5092161;28;20039;-55
2024/02/13 02:11:40;;;;;;;9.10;5.70;;;;;;;;;;5093572;28;20024;-55
2024/02/13 02:14:08;;;;;;;8.93;5.60;;;;;;;;;;5093661;28;20047;-55
2024/02/13 02:16:33;;;;;;;8.07;5.68;;;;;;;;;;5093667;28;20032;-55
2024/02/13 02:18:58;;;;;;;6.30;5.22;;;;;;;;;;5093789;28;20028;-55
2024/02/13 02:21:27;;;;;;;9.82;5.70;;;;;;;;;;5093690;28;20024;-55
2024/02/13 02:23:52;;;;;;;8.40;5.30;;;;;;;;;;5093496;28;20036;-55
2024/02/13 02:26:18;;;;;;;7.22;5.47;;;;;;;;;;5094539;28;20090;-55
2024/02/13 02:28:43;;;;;;;7.45;5.43;;;;;;;;;;5097340;28;20400;-61
2024/02/13 02:31:15;;;;;;;7.57;5.78;;;;;;;;;;5097470;28;20127;-61
2024/02/13 02:33:46;;;;;;;8.30;5.95;;;;;;;;;;5097505;28;20036;-61
2024/02/13 02:36:11;;;;;;;;;;;;;;;;;;5097899;28;20028;-60
2024/02/13 02:38:38;;;;;;;7.05;5.70;;;;;;;;;;5096194;28;19986;-55
2024/02/13 02:41:03;;;;;;;8.77;5.68;;;;;;;;;;5097479;28;20032;-60
2024/02/13 02:43:29;;;;;;;6.75;5.50;;;;;;;;;;5097383;28;20028;-61
2024/02/13 02:45:54;;;;;;;6.72;5.43;;;;;;;;;;5097180;28;20029;-60
2024/02/13 02:48:19;;;;;;;7.75;5.90;;;;;;;;;;5098649;28;20381;-61
2024/02/13 02:50:45;;;;;;;9.05;6.05;;;;;;;;;;5117106;28;20050;-61
2024/02/13 02:53:10;;;;;;;9.18;6.47;;;;;;;;;;5116954;28;20028;-61
2024/02/13 02:55:36;;;;;;;8.80;6.32;;;;;;;;;;5117564;28;20028;-61
2024/02/13 02:58:01;;;;;;;7.47;5.90;;;;;;;;;;5099448;28;20103;-60
2024/02/13 03:00:27;;;;;;;9.15;5.97;;;;;;;;;;5117362;28;20019;-60
2024/02/13 03:02:52;;;;;;;6.90;6.07;;;;;;;;;;5117178;28;20377;-61
2024/02/13 03:05:17;;;;;;;10.07;6.78;;;;;;;;;;5117125;28;20042;-61
2024/02/13 03:07:45;;;;;;;9.18;6.60;;;;;;;;;;5117194;28;20040;-60
2024/02/13 03:10:11;;;;;;;7.72;6.18;;;;;;;;;;5116874;28;20038;-61
2024/02/13 03:12:37;;;;;;;9.38;6.50;;;;;;;;;;5116868;28;20389;-62
2024/02/13 03:15:02;;;;;;;9.85;6.32;;;;;;;;;;5081842;28;20027;-56
2024/02/13 03:17:28;;;;;;;8.52;6.03;;;;;;;;;;5116723;28;20024;-56
2024/02/13 03:19:53;;;;;;;7.95;6.43;;;;;;;;;;5117205;28;20027;-55
2024/02/13 03:22:19;;;;;;;7.82;6.00;;;;;;;;;;5116977;28;20016;-55
2024/02/13 03:24:45;;;;;;;7.32;5.88;;;;;;;;;;5117041;28;20458;-55
2024/02/13 03:27:10;;;;;;;9.07;6.18;;;;;;;;;;5116440;28;20115;-61
2024/02/13 03:29:36;;;;;;;10.55;6.43;;;;;;;;;;5098338;28;20061;-61
2024/02/13 03:32:02;;;;;;;8.75;6.20;;;;;;;;;;5116503;28;20031;-62
2024/02/13 03:34:27;;;;;;;8.13;6.78;;;;;;;;;;5116484;28;20035;-62
2024/02/13 03:36:53;;;;;;;8.95;7.45;;;;;;;;;;5116259;28;20069;-62
2024/02/13 03:39:18;;;;;;;8.90;6.65;;;;;;;;;;5116801;28;20361;-55
2024/02/13 03:41:46;;;;;;;10.45;7.18;;;;;;;;;;5097905;28;20400;-55
2024/02/13 03:44:11;;;;;;;8.00;6.45;;;;;;;;;;5116717;28;20451;-55
2024/02/13 03:46:38;;;;;;;9.07;6.97;;;;;;;;;;5098427;28;20108;-55
2024/02/13 03:49:04;;;;;;;10.25;7.30;;;;;;;;;;5115810;28;20129;-55
2024/02/13 03:51:29;;;;;;;13.18;9.40;;;;;;;;;;5115953;28;20027;-54
2024/02/13 03:53:54;;;;;;;12.38;8.35;;;;;;;;;;5116307;28;20567;-55
2024/02/13 03:56:20;;;;;;;11.07;7.60;;;;;;;;;;5116111;28;20019;-54
2024/02/13 03:58:45;;;;;;;11.82;9.40;;;;;;;;;;5116409;28;20026;-54
2024/02/13 04:01:10;;;;;;;15.90;11.45;;;;;;;;;;5116024;28;20381;-55
2024/02/13 04:03:37;;;;;;;15.65;11.27;;;;;;;;;;5115741;28;20037;-60
2024/02/13 04:06:05;;;;;;;13.48;8.73;;;;;;;;;;5115423;28;20077;-60
2024/02/13 04:08:31;;;;;;;15.45;10.05;;;;;;;;;;5115861;28;20396;-61
2024/02/13 04:10:56;;;;;;;12.85;9.57;;;;;;;;;;5115628;28;20114;-55
2024/02/13 04:13:22;;;;;;;19.23;11.40;;;;;;;;;;5115676;28;20031;-55
2024/02/13 04:15:47;;;;;;;16.38;11.48;;;;;;;;;;5116073;28;20099;-60
2024/02/13 04:18:14;;;;;;;20.15;11.00;;;;;;;;;;5115386;28;20427;-61
2024/02/13 04:20:40;;;;;;;15.20;10.68;;;;;;;;;;5115872;28;20020;-55
2024/02/13 04:23:06;;;;;;;19.48;11.30;;;;;;;;;;5115091;28;20031;-54
2024/02/13 04:25:31;;;;;;;34.83;20.25;;;;;;;;;;5115210;28;20467;-54
2024/02/13 04:27:57;;;;;;;33.75;19.52;;;;;;;;;;5115249;28;20035;-54
2024/02/13 04:30:22;;;;;;;32.15;18.00;;;;;;;;;;5115464;28;20032;-54
2024/02/13 04:32:47;;;;;;;28.23;17.02;;;;;;;;;;5114992;28;20023;-55
2024/02/13 04:35:13;;;;;;;30.58;18.40;;;;;;;;;;5115143;28;20054;-55
2024/02/13 04:37:38;;;;;;;26.48;16.10;;;;;;;;;;5115389;28;20035;-55
2024/02/13 04:40:04;;;;;;;26.08;16.20;;;;;;;;;;5115220;28;20023;-55
2024/02/13 04:42:33;;;;;;;28.92;16.77;;;;;;;;;;5115494;28;20019;-55
2024/02/13 04:44:59;;;;;;;26.43;15.10;;;;;;;;;;5115076;28;20061;-55
2024/02/13 04:47:27;;;;;;;26.50;16.30;;;;;;;;;;5115046;28;20362;-56
2024/02/13 04:49:54;;;;;;;26.95;16.17;;;;;;;;;;5114095;28;20065;-56
2024/02/13 04:52:20;;;;;;;25.77;15.95;;;;;;;;;;5114453;28;20031;-57
2024/02/13 04:54:46;;;;;;;26.23;16.08;;;;;;;;;;5095310;28;20035;-56
2024/02/13 04:57:11;;;;;;;28.08;16.55;;;;;;;;;;5113772;28;20103;-57
2024/02/13 04:59:47;;;;;;;35.25;19.92;;;;;;;;;;5095342;28;20397;-57
2024/02/13 05:02:13;;;;;;;37.47;21.70;;;;;;;;;;5095313;28;20028;-57
2024/02/13 05:07:23;;;;;;;33.85;18.80;;;;;;;;;;5113488;28;20496;-57
2024/02/13 05:09:48;;;;;;;46.38;25.35;;;;;;;;;;5113497;28;20031;-57
2024/02/13 05:12:14;;;;;;;44.95;26.17;;;;;;;;;;5113459;28;20398;-56
2024/02/13 05:14:41;;;;;;;46.45;28.63;;;;;;;;;;5113521;28;20024;-56
2024/02/13 05:17:08;;;;;;;42.92;26.13;;;;;;;;;;5114480;28;20362;-56
2024/02/13 05:19:33;;;;;;;40.83;24.35;;;;;;;;;;5114808;28;20047;-57
2024/02/13 05:21:59;;;;;;;37.00;23.10;;;;;;;;;;5114934;28;20446;-56
2024/02/13 05:24:26;;;;;;;29.75;18.42;;;;;;;;;;5114548;28;20028;-61
2024/02/13 05:26:51;;;;;;;26.35;18.08;;;;;;;;;;5114698;28;20065;-61
2024/02/13 05:32:19;;;;;;;32.25;20.27;;;;;;;;;;5055374;22;20474;-62
2024/02/13 05:34:45;;;;;;;28.65;18.92;;;;;;;;;;5114040;28;20039;-62
2024/02/13 05:37:11;;;;;;;24.55;16.88;;;;;;;;;;5114469;28;20369;-62
2024/02/13 05:39:37;;;;;;;26.60;17.20;;;;;;;;;;5114618;28;20123;-62
2024/02/13 05:42:02;;;;;;;23.83;17.40;;;;;;;;;;5107948;28;20099;-61
2024/02/13 05:44:28;;;;;;;24.23;15.77;;;;;;;;;;5075563;28;20526;-62
2024/02/13 05:46:56;;;;;;;24.25;16.90;;;;;;;;;;5094118;28;20400;-62
2024/02/13 05:49:22;;;;;;;21.90;14.68;;;;;;;;;;5076015;28;20036;-62
2024/02/13 05:51:48;;;;;;;19.50;14.20;;;;;;;;;;5075474;28;20043;-62
2024/02/13 05:54:14;;;;;;;21.40;14.95;;;;;;;;;;5094078;28;20074;-62
2024/02/13 05:56:40;;;;;;;20.55;14.40;;;;;;;;;;5094037;28;20020;-62
2024/02/13 05:59:06;;;;;;;23.02;13.98;;;;;;;;;;5094064;28;20055;-62
2024/02/13 06:01:31;;;;;;;20.67;13.75;;;;;;;;;;5094487;28;20511;-62
2024/02/13 06:04:01;;;;;;;16.55;11.73;;;;;;;;;;5098001;28;20028;-62
2024/02/13 06:06:26;;;;;;;12.38;9.73;;;;;;;;;;5079806;28;20035;-62
2024/02/13 06:08:55;;;;;;;9.50;7.97;;;;;;;;;;5097472;28;20091;-62
2024/02/13 06:11:21;;;;;;;12.30;7.35;;;;;;;;;;5097387;28;20032;-62
2024/02/13 06:13:49;;;;;;;10.65;7.75;;;;;;;;;;5097538;28;20024;-62
2024/02/13 06:16:17;;;;;;;10.10;8.18;;;;;;;;;;5097524;28;20028;-62
2024/02/13 06:18:46;;;;;;;10.00;7.47;;;;;;;;;;5097767;28;20099;-62
2024/02/13 06:21:11;;;;;;;9.38;7.28;;;;;;;;;;5097511;28;20028;-62
2024/02/13 06:23:37;;;;;;;8.07;6.68;;;;;;;;;;5097865;28;20081;-62
2024/02/13 06:26:03;;;;;;;7.55;6.10;;;;;;;;;;5097160;28;20092;-62
2024/02/13 06:28:28;;;;;;;8.27;6.55;;;;;;;;;;5096851;28;20035;-63
2024/02/13 06:31:04;;;;;;;8.10;6.43;;;;;;;;;;5075082;28;20387;-62
2024/02/13 06:33:39;;;;;;;7.35;5.88;;;;;;;;;;5075208;28;20045;-63
2024/02/13 06:36:18;;;;;;;7.18;5.90;;;;;;;;;;5075268;28;20036;-63
2024/02/13 06:38:48;;;;;;;8.48;6.30;;;;;;;;;;5075484;28;20024;-63
2024/02/13 06:41:14;;;;;;;6.78;5.95;;;;;;;;;;5076734;28;20154;-62
2024/02/13 06:43:39;;;;;;;8.73;6.63;;;;;;;;;;5076850;28;20064;-62
2024/02/13 06:46:05;;;;;;;8.02;6.15;;;;;;;;;;5076378;28;20091;-62
2024/02/13 06:48:34;;;;;;;7.32;5.90;;;;;;;;;;5076312;28;20036;-62
2024/02/13 06:51:12;;;;;;;7.80;6.32;;;;;;;;;;5076438;28;20020;-62
2024/02/13 06:53:42;;;;;;;7.47;6.00;;;;;;;;;;5074805;28;20056;-62
2024/02/13 06:56:08;;;;;;;7.32;6.03;;;;;;;;;;5076615;28;20024;-62
2024/02/13 06:58:33;;;;;;;7.65;6.13;;;;;;;;;;5076561;28;20031;-62
2024/02/13 07:01:02;;;;;;;6.25;5.63;;;;;;;;;;5075274;28;20033;-62
2024/02/13 07:03:31;;;;;;;6.93;5.90;;;;;;;;;;5075954;28;20382;-62
2024/02/13 07:05:57;;;;;;;7.13;6.20;;;;;;;;;;5075815;28;20052;-62
2024/02/13 07:08:22;;;;;;;6.18;5.35;;;;;;;;;;5075737;28;20119;-61
2024/02/13 07:10:49;;;;;;;6.90;5.60;;;;;;;;;;5075671;28;20179;-61
2024/02/13 07:13:14;;;;;;;6.38;5.30;;;;;;;;;;5075265;28;20036;-62
2024/02/13 07:15:42;;;;;;;6.38;5.63;;;;;;;;;;5075892;28;20028;-63
2024/02/13 07:18:10;;;;;;;6.53;5.75;;;;;;;;;;5058027;28;20124;-62
2024/02/13 07:20:46;;;;;;;7.05;6.28;;;;;;;;;;5075927;28;20052;-62
2024/02/13 07:23:14;;;;;;;7.55;6.07;;;;;;;;;;5074712;28;20033;-62
2024/02/13 07:25:42;;;;;;;8.15;5.78;;;;;;;;;;5058040;28;20101;-63
2024/02/13 07:28:11;;;;;;;8.20;6.00;;;;;;;;;;5074605;28;20032;-63
2024/02/13 07:30:46;;;;;;;9.40;6.82;;;;;;;;;;5075157;28;20328;-62
2024/02/13 07:33:17;;;;;;;6.88;5.65;;;;;;;;;;5077512;28;20036;-63
2024/02/13 07:35:48;;;;;;;8.80;6.47;;;;;;;;;;5077442;28;20025;-63
2024/02/13 07:38:16;;;;;;;8.45;6.78;;;;;;;;;;5077751;28;20024;-63
2024/02/13 07:40:47;;;;;;;7.45;6.55;;;;;;;;;;5095654;28;20595;-62
2024/02/13 07:43:13;;;;;;;7.32;5.20;;;;;;;;;;5095546;28;20032;-62
2024/02/13 07:45:39;;;;;;;7.90;6.13;;;;;;;;;;5095536;28;20030;-62
2024/02/13 07:48:06;;;;;;;5.95;4.85;;;;;;;;;;5077179;28;20110;-62
2024/02/13 07:50:31;;;;;;;7.30;4.85;;;;;;;;;;5095658;28;20035;-62
2024/02/13 07:52:57;;;;;;;5.53;5.03;;;;;;;;;;5095184;28;20106;-61
2024/02/13 07:55:22;;;;;;;5.38;4.63;;;;;;;;;;5095354;28;20016;-61
2024/02/13 07:57:50;;;;;;;6.55;5.22;;;;;;;;;;5077359;28;20359;-61
2024/02/13 08:00:20;;;;;;;5.25;4.57;;;;;;;;;;5095692;28;20032;-61
2024/02/13 08:02:45;;;;;;;;;;;;;;;;;;5095388;28;20051;-61
2024/02/13 08:05:12;;;;;;;5.77;4.40;;;;;;;;;;5077427;28;20013;-61
2024/02/13 08:07:38;;;;;;;6.07;5.25;;;;;;;;;;5094893;28;20278;-61
2024/02/13 08:10:06;;;;;;;8.13;5.57;;;;;;;;;;5095057;28;20040;-61
2024/02/13 08:12:31;;;;;;;7.47;5.38;;;;;;;;;;5094739;28;20068;-61
2024/02/13 08:14:57;;;;;;;6.40;5.07;;;;;;;;;;5094364;28;20062;-61
2024/02/13 08:17:23;;;;;;;4.18;3.78;;;;;;;;;;5094647;28;20060;-61
2024/02/13 08:19:49;;;;;;;5.22;4.70;;;;;;;;;;5094521;28;20059;-61
2024/02/13 08:22:18;;;;;;;4.80;4.32;;;;;;;;;;5094200;28;20020;-61
2024/02/13 08:24:43;;;;;;;5.82;4.57;;;;;;;;;;5093998;28;20028;-61
2024/02/13 08:27:08;;;;;;;6.28;5.35;;;;;;;;;;5094528;28;20036;-61
2024/02/13 08:29:34;;;;;;;4.53;4.18;;;;;;;;;;5094774;28;20024;-61
2024/02/13 08:31:59;;;;;;;5.20;4.35;;;;;;;;;;5094441;28;20052;-61
2024/02/13 08:34:25;;;;;;;6.30;4.07;;;;;;;;;;5094922;28;20040;-61
2024/02/13 08:36:50;;;;;;;5.72;4.43;;;;;;;;;;5094340;28;20067;-61
2024/02/13 08:39:16;;;;;;;4.25;3.50;;;;;;;;;;5075324;28;20057;-61
2024/02/13 08:41:41;;;;;;;5.10;4.25;;;;;;;;;;5094256;28;20609;-61
2024/02/13 08:44:09;;;;;;;6.05;4.93;;;;;;;;;;5076503;28;20031;-61
2024/02/13 08:46:34;;;;;;;4.70;4.15;;;;;;;;;;5094550;28;20111;-61
2024/02/13 08:49:00;;;;;;;4.68;4.13;;;;;;;;;;5093510;28;20534;-61
2024/02/13 08:51:26;;;;;;;4.68;4.25;;;;;;;;;;5075895;28;20047;-61
2024/02/13 08:53:52;;;;;;;7.75;4.57;;;;;;;;;;5094635;28;20043;-61
2024/02/13 08:56:19;;;;;;;6.18;4.43;;;;;;;;;;5093915;28;20024;-61
2024/02/13 08:58:45;;;;;;;5.75;4.63;;;;;;;;;;5093598;28;20025;-61
2024/02/13 09:01:10;;;;;;;4.97;4.47;;;;;;;;;;5093889;28;20035;-61
2024/02/13 09:03:36;;;;;;;6.45;3.97;;;;;;;;;;5094042;28;20036;-61
2024/02/13 09:06:04;;;;;;;5.88;4.63;;;;;;;;;;5094056;28;20052;-61
2024/02/13 09:08:34;;;;;;;4.40;3.78;;;;;;;;;;5075702;28;20063;-61
2024/02/13 09:11:01;;;;;;;6.60;4.38;;;;;;;;;;5093880;28;20028;-61
2024/02/13 09:13:28;;;;;;;5.00;4.50;;;;;;;;;;5093901;28;20032;-61
2024/02/13 09:15:55;;;;;;;4.43;3.97;;;;;;;;;;5093699;28;20035;-61
2024/02/13 09:18:21;;;;;;;4.68;4.25;;;;;;;;;;5094049;28;20493;-61
2024/02/13 09:20:47;;;;;;;5.85;4.13;;;;;;;;;;5093610;28;20496;-61
2024/02/13 09:23:12;;;;;;;4.70;4.13;;;;;;;;;;5093658;28;20032;-61
2024/02/13 09:25:38;;;;;;;4.70;4.03;;;;;;;;;;5093688;28;20035;-60
2024/02/13 09:28:04;;;;;;;5.05;4.10;;;;;;;;;;5094117;28;20031;-60
2024/02/13 09:30:29;;;;;;;5.10;4.60;;;;;;;;;;5093470;28;20119;-60
2024/02/13 09:32:55;;;;;;;4.70;4.25;;;;;;;;;;5093616;28;20478;-61
2024/02/13 09:35:20;;;;;;;3.85;3.28;;;;;;;;;;5095622;28;20043;-60
2024/02/13 09:37:46;;;;;;;3.72;3.42;;;;;;;;;;5100428;28;20024;-61
2024/02/13 09:40:16;;;;;;;3.83;3.50;;;;;;;;;;5082171;28;20032;-61
2024/02/13 09:42:44;;;;;;;4.53;3.60;;;;;;;;;;5100443;28;20027;-61
2024/02/13 09:45:10;;;;;;;4.32;3.58;;;;;;;;;;5100192;28;20038;-61
2024/02/13 09:47:37;;;;;;;4.22;3.67;;;;;;;;;;5100246;28;20031;-60
2024/02/13 09:50:05;;;;;;;4.38;3.97;;;;;;;;;;5100033;28;20016;-60
2024/02/13 09:52:32;;;;;;;3.35;3.05;;;;;;;;;;5100983;28;20441;-60
2024/02/13 09:54:58;;;;;;;4.60;3.22;;;;;;;;;;5081960;28;20028;-61
2024/02/13 09:57:24;;;;;;;3.80;3.50;;;;;;;;;;5100435;28;20119;-61
2024/02/13 09:59:50;;;;;;;2.95;2.65;;;;;;;;;;5100798;28;20035;-60
2024/02/13 10:02:16;;;;;;;4.30;3.38;;;;;;;;;;5100051;28;20028;-61
2024/02/13 10:04:41;;;;;;;4.25;3.28;;;;;;;;;;5100243;28;20034;-61
2024/02/13 10:07:07;;;;;;;4.10;3.70;;;;;;;;;;5099735;28;20527;-60
2024/02/13 10:09:32;;;;;;;2.85;2.65;;;;;;;;;;5100097;28;20024;-60
2024/02/13 10:12:09;;;;;;;4.13;2.55;;;;;;;;;;5099907;28;20032;-61
2024/02/13 10:14:34;;;;;;;2.50;2.30;;;;;;;;;;5099679;28;20412;-61
2024/02/13 10:17:06;;;;;;;2.50;2.30;;;;;;;;;;5100368;28;20024;-61
2024/02/13 10:19:32;;;;;;;3.03;2.42;;;;;;;;;;5099469;28;20043;-61
2024/02/13 10:22:05;;;;;;;3.00;2.33;;;;;;;;;;5099063;28;20038;-62
2024/02/13 10:24:30;;;;;;;2.22;2.03;;;;;;;;;;5100189;28;20513;-61
2024/02/13 10:26:56;;;;;;;1.98;1.83;;;;;;;;;;5081639;28;20032;-60
2024/02/13 10:29:21;;;;;;;1.42;1.33;;;;;;;;;;5100182;28;20028;-61
2024/02/13 10:31:47;;;;;;;1.30;1.20;;;;;;;;;;5100111;28;20040;-61
2024/02/13 10:34:13;;;;;;;1.15;1.10;;;;;;;;;;5100063;28;20024;-61
2024/02/13 10:36:42;;;;;;;1.48;1.30;;;;;;;;;;5099826;28;20024;-62
2024/02/13 10:39:11;;;;;;;1.30;1.20;;;;;;;;;;5099096;28;20020;-60
2024/02/13 10:41:40;;;;;;;1.20;1.10;;;;;;;;;;5099803;28;20104;-61
2024/02/13 10:44:06;;;;;;;0.85;0.82;;;;;;;;;;5081584;28;20028;-61
2024/02/13 10:46:36;;;;;;;1.40;1.10;;;;;;;;;;5099648;28;20051;-61
2024/02/13 10:49:11;;;;;;;1.17;0.80;;;;;;;;;;5096485;28;20028;-61
2024/02/13 10:51:37;;;;;;;1.17;1.00;;;;;;;;;;5078979;28;20073;-61
2024/02/13 10:54:06;;;;;;;1.23;0.95;;;;;;;;;;5096107;28;20674;-61
2024/02/13 10:56:34;;;;;;;1.38;0.93;;;;;;;;;;5096136;28;20028;-62
2024/02/13 10:59:01;;;;;;;1.05;0.95;;;;;;;;;;5095892;28;20028;-61
2024/02/13 11:01:27;;;;;;;0.90;0.80;;;;;;;;;;5078700;28;20430;-61
2024/02/13 11:03:53;;;;;;;1.60;0.88;;;;;;;;;;5095974;28;20086;-61
2024/02/13 11:06:19;;;;;;;1.20;1.05;;;;;;;;;;5078035;28;20366;-61
2024/02/13 11:08:45;;;;;;;0.90;0.90;;;;;;;;;;5096808;28;20032;-61
2024/02/13 11:11:17;;;;;;;1.20;1.10;;;;;;;;;;5095389;28;20028;-62
2024/02/13 11:13:43;;;;;;;1.10;1.02;;;;;;;;;;5095751;28;20086;-63
2024/02/13 11:16:10;;;;;;;2.72;1.30;;;;;;;;;;5095768;28;20036;-63
2024/02/13 11:18:49;;;;;;;1.45;1.17;;;;;;;;;;5095623;28;20514;-63
2024/02/13 11:21:21;;;;;;;1.40;1.30;;;;;;;;;;5096155;28;20036;-62
2024/02/13 11:23:51;;;;;;;1.75;1.17;;;;;;;;;;5095693;28;20036;-63
2024/02/13 11:26:17;;;;;;;2.53;1.42;;;;;;;;;;5095957;28;20035;-63
2024/02/13 11:28:43;;;;;;;1.48;1.38;;;;;;;;;;5095808;28;20039;-63
2024/02/13 11:31:14;;;;;;;1.40;1.30;;;;;;;;;;5095480;28;20394;-63
2024/02/13 11:33:58;;;;;;;1.30;1.20;;;;;;;;;;5077843;28;20039;-63
2024/02/13 11:36:24;;;;;;;1.27;1.17;;;;;;;;;;5095535;28;20032;-63
2024/02/13 11:38:54;;;;;;;1.90;1.20;;;;;;;;;;5095618;28;20020;-62
2024/02/13 11:41:20;;;;;;;1.35;1.25;;;;;;;;;;5076618;28;20431;-62
2024/02/13 11:43:45;;;;;;;1.45;1.17;;;;;;;;;;5095681;28;20028;-62
2024/02/13 11:46:12;;;;;;;2.05;1.30;;;;;;;;;;5094654;28;20043;-62
2024/02/13 11:48:39;;;;;;;2.58;1.27;;;;;;;;;;5095499;28;20050;-62
2024/02/13 11:51:05;;;;;;;1.63;1.50;;;;;;;;;;5095489;28;20032;-63
2024/02/13 11:53:30;;;;;;;1.95;1.73;;;;;;;;;;5095164;28;20032;-62
2024/02/13 11:55:57;;;;;;;1.35;1.15;;;;;;;;;;5095443;28;20103;-62
2024/02/13 11:58:22;;;;;;;1.67;1.33;;;;;;;;;;5094874;28;20165;-62
2024/02/13 12:01:02;;;;;;;1.80;1.60;;;;;;;;;;5094769;28;20102;-62
2024/02/13 12:03:28;;;;;;;1.43;1.33;;;;;;;;;;5095206;28;20036;-62
2024/02/13 12:05:54;;;;;;;2.10;1.40;;;;;;;;;;5095147;28;20043;-63
2024/02/13 12:08:19;;;;;;;2.05;1.42;;;;;;;;;;5094865;28;20122;-63
2024/02/13 12:10:46;;;;;;;3.35;1.45;;;;;;;;;;5095352;28;20113;-62
2024/02/13 12:13:11;;;;;;;2.25;1.52;;;;;;;;;;5095529;28;20024;-62
2024/02/13 12:15:37;;;;;;;1.88;1.70;;;;;;;;;;5095093;28;20113;-62
2024/02/13 12:18:03;;;;;;;1.85;1.67;;;;;;;;;;5095268;28;20073;-62
2024/02/13 12:20:29;;;;;;;1.77;1.48;;;;;;;;;;5095264;28;20032;-62
2024/02/13 12:23:06;;;;;;;2.00;1.60;;;;;;;;;;5094822;28;20028;-62
2024/02/13 12:25:41;;;;;;;1.92;1.83;;;;;;;;;;5094731;28;20036;-62
2024/02/13 12:28:06;;;;;;;2.70;1.88;;;;;;;;;;5094868;28;20024;-62
2024/02/13 12:30:34;;;;;;;2.17;1.88;;;;;;;;;;5094588;28;20032;-62
2024/02/13 12:33:06;;;;;;;2.50;2.20;;;;;;;;;;5076704;28;20107;-62
2024/02/13 12:35:32;;;;;;;2.28;2.08;;;;;;;;;;5094652;28;20481;-62
2024/02/13 12:38:12;;;;;;;2.45;2.20;;;;;;;;;;5094667;28;20017;-62
2024/02/13 12:40:38;;;;;;;4.00;2.17;;;;;;;;;;5094585;28;20478;-62
2024/02/13 12:43:04;;;;;;;2.35;2.15;;;;;;;;;;5094483;28;20042;-62
2024/02/13 12:45:34;;;;;;;3.55;3.03;;;;;;;;;;5094432;28;20077;-62
2024/02/13 12:48:00;;;;;;;3.33;2.40;;;;;;;;;;5094688;28;20032;-62
2024/02/13 12:50:26;;;;;;;3.97;2.90;;;;;;;;;;5094668;28;20092;-62
2024/02/13 12:52:52;;;;;;;2.78;2.55;;;;;;;;;;5094586;28;20027;-62
2024/02/13 12:55:20;;;;;;;2.83;2.58;;;;;;;;;;5094784;28;20111;-62
2024/02/13 12:57:45;;;;;;;2.92;2.45;;;;;;;;;;5094289;28;20107;-62
2024/02/13 13:00:16;;;;;;;4.35;3.20;;;;;;;;;;5094215;28;20570;-62
2024/02/13 13:02:43;;;;;;;3.97;3.45;;;;;;;;;;5094481;28;20157;-62
2024/02/13 13:05:12;;;;;;;4.03;2.53;;;;;;;;;;5094239;28;20039;-63
2024/02/13 13:07:40;;;;;;;2.50;2.30;;;;;;;;;;5094081;28;20385;-62
2024/02/13 13:10:07;;;;;;;4.20;2.50;;;;;;;;;;5075666;28;20081;-62
2024/02/13 13:12:33;;;;;;;4.88;2.97;;;;;;;;;;5094300;28;20032;-62
2024/02/13 13:14:59;;;;;;;2.50;2.28;;;;;;;;;;5093919;28;20104;-62
2024/02/13 13:17:24;;;;;;;2.72;2.45;;;;;;;;;;5094092;28;20043;-62
2024/02/13 13:19:50;;;;;;;3.63;2.50;;;;;;;;;;5093851;28;20032;-62
2024/02/13 13:22:17;;;;;;;3.28;2.75;;;;;;;;;;5094173;28;20024;-62
2024/02/13 13:24:43;;;;;;;3.20;2.90;;;;;;;;;;5094401;28;20473;-62
2024/02/13 13:27:09;;;;;;;2.83;2.58;;;;;;;;;;5093884;28;20036;-62
2024/02/13 13:29:42;;;;;;;2.92;2.63;;;;;;;;;;5094121;28;20161;-62
2024/02/13 13:32:16;;;;;;;2.72;2.42;;;;;;;;;;5075610;28;20530;-63
2024/02/13 13:34:43;;;;;;;4.10;3.45;;;;;;;;;;5093777;28;20024;-61
2024/02/13 13:37:10;;;;;;;2.50;2.30;;;;;;;;;;5093712;28;20032;-62
2024/02/13 13:39:36;;;;;;;2.65;2.45;;;;;;;;;;5093783;28;20108;-61
2024/02/13 13:42:08;;;;;;;2.60;2.42;;;;;;;;;;5113596;22;20185;-61
2024/02/13 13:44:34;;;;;;;2.60;2.40;;;;;;;;;;5114189;28;20435;-56
2024/02/13 13:46:59;;;;;;;2.47;2.35;;;;;;;;;;5125567;22;20405;-63
2024/02/13 13:49:25;;;;;;;2.17;2.03;;;;;;;;;;5126574;22;20066;-61
2024/02/13 13:51:50;;;;;;;2.67;2.47;;;;;;;;;;5114219;28;20042;-61
2024/02/13 13:54:15;;;;;;;2.95;2.30;;;;;;;;;;5113439;28;20020;-61
2024/02/13 13:56:41;;;;;;;2.35;2.15;;;;;;;;;;5112563;28;20032;-61
2024/02/13 13:59:07;;;;;;;3.15;2.45;;;;;;;;;;5112091;28;20050;-62
2024/02/13 14:01:33;;;;;;;4.20;2.67;;;;;;;;;;5111778;28;20031;-62
2024/02/13 14:03:59;;;;;;;2.67;2.47;;;;;;;;;;5093403;28;20035;-62
2024/02/13 14:06:24;;;;;;;3.58;2.45;;;;;;;;;;5111746;28;20033;-62
2024/02/13 14:08:49;;;;;;;2.85;2.40;;;;;;;;;;5111683;28;20020;-62
2024/02/13 14:11:17;;;;;;;3.00;2.80;;;;;;;;;;5112533;28;20494;-62
2024/02/13 14:13:42;;;;;;;4.18;2.55;;;;;;;;;;5113042;28;20052;-62
2024/02/13 14:16:09;;;;;;;3.92;2.95;;;;;;;;;;5113962;28;20027;-62
2024/02/13 14:18:34;;;;;;;4.88;3.45;;;;;;;;;;5095610;28;20469;-62
2024/02/13 14:21:00;;;;;;;3.42;3.13;;;;;;;;;;5113921;28;20030;-62
2024/02/13 14:23:27;;;;;;;5.75;3.85;;;;;;;;;;5097827;28;20039;-61
2024/02/13 14:25:52;;;;;;;3.63;3.20;;;;;;;;;;5118106;28;20016;-61
2024/02/13 14:28:18;;;;;;;5.28;2.78;;;;;;;;;;5117783;28;20450;-61
2024/02/13 14:30:43;;;;;;;4.78;4.00;;;;;;;;;;5117733;28;20098;-61
2024/02/13 14:33:11;;;;;;;3.58;3.08;;;;;;;;;;5117590;28;20031;-62
2024/02/13 14:35:37;;;;;;;4.82;3.40;;;;;;;;;;5117343;28;20027;-62
2024/02/13 14:38:03;;;;;;;4.22;3.20;;;;;;;;;;5117585;28;20098;-61
2024/02/13 14:40:29;;;;;;;3.90;3.47;;;;;;;;;;5117472;28;20103;-63
2024/02/13 14:42:55;;;;;;;4.72;3.42;;;;;;;;;;5117142;28;20016;-62